Terminal Aerodrome Forecast
Issued by NWS

Home | Current Version | Previous Version | Text Only | Print | Product List | Glossary Off
Versions: 1 2 3 4 5 6 7 8 9 10 11 12

000
FTUS45 KGGW 262335
TAFSDY
TAF
KSDY 262335Z 2700/2724 09008KT P6SM FEW180
     FM271200 08005KT P6SM SCT050
     FM271300 09005KT P6SM BKN050
     FM272000 08008KT P6SM SCT070=

USA.gov is the U.S. government's official web portal to all federal, state and local government web resources and services.